Time;durP1;ratioP1;P1;durP2;ratioP2;P2;SDS_P1;SDS_P2;PMS_P1;PMS_P2;Temp;Humidity;BMP_temperature;BMP_pressure;BME280_temperature;BME280_humidity;BME280_pressure;Samples;Min_cycle;Max_cycle;Signal;HPM_P1;HPM_P2
2022/01/29 00:01:23;;;;;;;5.40;2.72;;;17.80;61.30;;;;;;10604642;27;20471;-43
2022/01/29 00:06:24;;;;;;;4.07;3.08;;;17.80;61.30;;;;;;10612140;27;20505;-43
2022/01/29 00:11:29;;;;;;;3.95;2.33;;;17.80;61.20;;;;;;10559019;27;20028;-43
2022/01/29 00:16:30;;;;;;;3.30;2.13;;;17.90;61.00;;;;;;10594658;27;20475;-47
2022/01/29 00:21:30;;;;;;;3.67;2.47;;;17.90;60.90;;;;;;10579853;28;20172;-45
2022/01/29 00:26:31;;;;;;;2.58;2.03;;;17.90;60.80;;;;;;10588833;27;20053;-47
2022/01/29 00:31:32;;;;;;;3.70;2.42;;;17.90;61.00;;;;;;10593116;27;20110;-44
2022/01/29 00:36:32;;;;;;;3.78;2.10;;;17.90;61.60;;;;;;10597268;27;20038;-43
2022/01/29 00:41:33;;;;;;;2.85;2.17;;;17.80;61.00;;;;;;10588643;28;20584;-46
2022/01/29 00:46:40;;;;;;;3.88;2.42;;;17.80;60.90;;;;;;10579848;28;20024;-46
2022/01/29 00:51:41;;;;;;;4.13;2.58;;;17.80;60.90;;;;;;10599702;27;20030;-46
2022/01/29 00:56:41;;;;;;;4.10;2.42;;;17.80;60.90;;;;;;10630383;27;20050;-45
2022/01/29 01:01:42;;;;;;;4.55;2.42;;;17.80;60.90;;;;;;10593348;27;20106;-45
2022/01/29 01:06:43;;;;;;;3.33;2.65;;;17.80;60.90;;;;;;10588299;27;20031;-43
2022/01/29 01:11:44;;;;;;;2.67;2.10;;;17.80;60.80;;;;;;10587748;28;20107;-45
2022/01/29 01:16:44;;;;;;;2.72;2.08;;;17.90;60.70;;;;;;10605074;27;20038;-47
2022/01/29 01:21:45;;;;;;;3.65;2.58;;;17.90;60.50;;;;;;10616299;27;20476;-44
2022/01/29 01:26:46;;;;;;;3.45;2.30;;;17.90;60.60;;;;;;10616774;27;20471;-44
2022/01/29 01:31:46;;;;;;;2.60;1.98;;;17.90;60.70;;;;;;10572187;27;20493;-45
2022/01/29 01:36:56;;;;;;;3.08;2.35;;;17.90;60.70;;;;;;10591637;27;20220;-46
2022/01/29 01:42:03;;;;;;;3.25;2.08;;;17.80;60.80;;;;;;10596243;27;20023;-45
2022/01/29 01:47:05;;;;;;;3.72;2.08;;;17.80;60.70;;;;;;10586687;27;20070;-46
2022/01/29 01:52:10;;;;;;;3.47;2.22;;;17.80;60.70;;;;;;10586461;28;20027;-49
2022/01/29 01:57:11;;;;;;;4.25;1.90;;;17.80;60.70;;;;;;10578066;27;20550;-48
2022/01/29 02:02:12;;;;;;;3.15;2.17;;;17.90;60.70;;;;;;10580329;27;20039;-44
2022/01/29 02:07:13;;;;;;;2.85;2.30;;;17.90;60.60;;;;;;10601387;27;20042;-46
2022/01/29 02:12:14;;;;;;;2.47;1.88;;;17.90;60.60;;;;;;10564602;28;20376;-46
2022/01/29 02:17:16;;;;;;;3.17;2.00;;;17.80;60.50;;;;;;10585359;28;20031;-43
2022/01/29 02:22:17;;;;;;;2.92;2.00;;;17.80;60.50;;;;;;10566559;28;20076;-44
2022/01/29 02:27:17;;;;;;;2.55;1.88;;;17.80;60.60;;;;;;10595728;27;20121;-43
2022/01/29 02:32:18;;;;;;;4.07;2.10;;;17.80;60.60;;;;;;10593094;27;20084;-45
2022/01/29 02:37:18;;;;;;;2.97;1.90;;;17.90;60.50;;;;;;10606333;27;20110;-44
2022/01/29 02:42:19;;;;;;;2.50;1.90;;;17.80;60.40;;;;;;10584188;28;20382;-44
2022/01/29 02:47:30;;;;;;;3.35;2.25;;;17.80;60.40;;;;;;10584370;28;20483;-44
2022/01/29 02:52:30;;;;;;;3.13;1.73;;;17.90;60.50;;;;;;10583923;28;20055;-44
2022/01/29 02:57:31;;;;;;;3.38;2.30;;;17.90;60.40;;;;;;10591056;27;20060;-45
2022/01/29 03:02:32;;;;;;;3.28;1.90;;;17.80;60.50;;;;;;10596082;27;20023;-44
2022/01/29 03:07:33;;;;;;;3.60;1.95;;;17.80;60.40;;;;;;10584560;27;20046;-43
2022/01/29 03:12:37;;;;;;;2.47;1.77;;;17.80;60.50;;;;;;10624037;27;20118;-44
2022/01/29 03:17:38;;;;;;;2.60;2.05;;;17.80;60.40;;;;;;10623558;27;20456;-45
2022/01/29 03:22:39;;;;;;;3.03;2.03;;;17.80;60.40;;;;;;10605091;27;20051;-47
2022/01/29 03:27:39;;;;;;;2.90;1.90;;;17.80;60.30;;;;;;10603831;27;20364;-49
2022/01/29 03:32:40;;;;;;;3.45;2.10;;;17.80;60.90;;;;;;10596159;27;20019;-44
2022/01/29 03:37:41;;;;;;;3.63;2.13;;;17.90;60.30;;;;;;10581544;27;20027;-43
2022/01/29 03:42:59;;;;;;;3.80;1.70;;;17.90;60.40;;;;;;10557832;28;20122;-46
2022/01/29 03:48:00;;;;;;;2.35;1.60;;;17.80;60.20;;;;;;10616795;27;20498;-47
2022/01/29 03:53:01;;;;;;;2.55;1.80;;;17.80;60.20;;;;;;10623938;27;20027;-45
2022/01/29 03:58:02;;;;;;;2.83;1.73;;;17.90;60.20;;;;;;10575354;28;20028;-43
2022/01/29 04:03:03;;;;;;;3.03;1.98;;;17.90;60.20;;;;;;10581175;28;20028;-43
2022/01/29 04:08:09;;;;;;;2.00;1.48;;;17.80;60.10;;;;;;10581418;27;20024;-47
2022/01/29 04:13:12;;;;;;;3.35;2.00;;;17.90;60.20;;;;;;10575389;27;20038;-46
2022/01/29 04:18:12;;;;;;;2.75;1.88;;;17.90;60.20;;;;;;10586957;27;20047;-44
2022/01/29 04:23:13;;;;;;;2.83;2.33;;;17.90;60.00;;;;;;10575257;27;20054;-46
2022/01/29 04:28:15;;;;;;;2.65;1.58;;;17.90;59.90;;;;;;10576040;27;20521;-43
2022/01/29 04:38:19;;;;;;;2.05;1.52;;;17.90;59.90;;;;;;10588936;27;20476;-45
2022/01/29 04:43:20;;;;;;;2.35;1.80;;;17.90;59.90;;;;;;10580029;28;20035;-43
2022/01/29 04:48:20;;;;;;;2.63;1.55;;;18.00;59.80;;;;;;10579976;28;20072;-46
2022/01/29 04:53:21;;;;;;;2.60;1.65;;;17.90;59.80;;;;;;10561502;28;20114;-47
2022/01/29 04:58:22;;;;;;;2.45;1.58;;;18.00;59.90;;;;;;10575515;28;20110;-45
2022/01/29 05:03:23;;;;;;;2.85;1.90;;;17.90;59.90;;;;;;10563608;28;20031;-44
2022/01/29 05:08:23;;;;;;;1.52;1.38;;;18.00;59.90;;;;;;10573806;28;20094;-46
2022/01/29 05:13:29;;;;;;;2.78;1.55;;;17.90;59.80;;;;;;10598341;28;20079;-44
2022/01/29 05:29:08;;;;;;;2.33;1.70;;;17.90;59.70;;;;;;10597928;28;20063;-45
2022/01/29 05:34:09;;;;;;;2.80;1.50;;;17.90;59.80;;;;;;10591533;28;20289;-46
2022/01/29 05:39:10;;;;;;;2.47;1.55;;;17.90;59.90;;;;;;10600799;27;20084;-48
2022/01/29 05:44:10;;;;;;;2.38;1.50;;;17.80;59.90;;;;;;10586876;27;20024;-49
2022/01/29 05:49:11;;;;;;;3.42;1.70;;;18.00;59.90;;;;;;10596108;27;20415;-44
2022/01/29 05:54:12;;;;;;;7.00;2.55;;;18.10;59.60;;;;;;10590619;27;20102;-44
2022/01/29 05:59:13;;;;;;;3.78;2.17;;;18.00;61.20;;;;;;10586236;28;20515;-46
2022/01/29 06:04:14;;;;;;;3.40;2.20;;;18.10;61.60;;;;;;10586122;27;20395;-44
2022/01/29 06:09:14;;;;;;;8.15;2.60;;;18.10;61.60;;;;;;10585553;28;20020;-45
2022/01/29 06:14:15;;;;;;;4.88;2.63;;;18.00;61.40;;;;;;10594203;27;20107;-43
2022/01/29 06:19:16;;;;;;;4.30;2.35;;;18.10;62.10;;;;;;10612993;27;20042;-43
2022/01/29 06:24:17;;;;;;;7.85;2.70;;;18.10;62.20;;;;;;10592342;27;20110;-44
2022/01/29 06:29:18;;;;;;;7.15;2.38;;;18.20;61.70;;;;;;10589174;27;20110;-44
2022/01/29 06:34:18;;;;;;;8.95;2.70;;;18.20;62.40;;;;;;10573070;27;20039;-42
2022/01/29 06:39:19;;;;;;;9.00;2.97;;;18.10;61.90;;;;;;10592316;27;20027;-43
2022/01/29 06:44:20;;;;;;;12.52;3.67;;;18.10;62.20;;;;;;10605819;27;20475;-43
2022/01/29 06:49:20;;;;;;;7.45;3.20;;;18.00;62.40;;;;;;10606900;27;20090;-43
2022/01/29 06:54:21;;;;;;;11.30;3.67;;;18.00;62.50;;;;;;10599077;27;20034;-42
2022/01/29 06:59:22;;;;;;;7.93;2.75;;;17.90;62.90;;;;;;10598526;27;20099;-43
2022/01/29 07:04:22;;;;;;;6.47;3.00;;;18.10;62.30;;;;;;10588586;27;20156;-45
2022/01/29 07:09:23;;;;;;;9.90;3.35;;;18.20;62.10;;;;;;10596373;27;20059;-41
2022/01/29 07:14:24;;;;;;;10.88;3.67;;;18.40;62.10;;;;;;10569417;27;20045;-43
2022/01/29 07:19:25;;;;;;;9.52;4.18;;;18.40;62.30;;;;;;10607590;27;20041;-44
2022/01/29 07:24:26;;;;;;;11.63;5.32;;;18.40;62.10;;;;;;10597235;27;20122;-45
2022/01/29 07:29:27;;;;;;;12.30;4.22;;;18.40;62.70;;;;;;10589514;27;20031;-42
2022/01/29 07:34:28;;;;;;;9.02;4.65;;;18.30;62.60;;;;;;10582883;27;20131;-45
2022/01/29 07:39:29;;;;;;;12.25;4.72;;;18.30;62.50;;;;;;10605856;27;20028;-44
2022/01/29 07:44:31;;;;;;;14.93;4.75;;;18.20;62.70;;;;;;10598494;27;20046;-42
2022/01/29 07:49:31;;;;;;;15.70;6.40;;;18.30;62.60;;;;;;10588163;27;20388;-42
2022/01/29 07:54:32;;;;;;;10.50;5.38;;;18.20;62.50;;;;;;10580048;28;20085;-41
2022/01/29 07:59:33;;;;;;;12.70;6.60;;;18.20;62.60;;;;;;10592396;27;20110;-45
2022/01/29 08:04:34;;;;;;;11.45;6.05;;;18.20;62.60;;;;;;10579250;27;20419;-42
2022/01/29 08:09:35;;;;;;;8.23;7.38;;;18.10;63.00;;;;;;10570827;27;20051;-44
2022/01/29 08:14:36;;;;;;;14.90;9.27;;;18.10;63.10;;;;;;10592489;27;20031;-44
2022/01/29 08:19:36;;;;;;;19.55;9.32;;;18.10;63.20;;;;;;10599464;27;20177;-45
2022/01/29 08:24:37;;;;;;;19.73;8.90;;;18.10;63.20;;;;;;10617270;27;20661;-46
2022/01/29 08:29:38;;;;;;;19.38;13.20;;;18.20;63.10;;;;;;10581530;27;20409;-44
2022/01/29 08:34:40;;;;;;;23.50;12.43;;;18.10;63.70;;;;;;10586605;27;20028;-42
2022/01/29 08:39:41;;;;;;;27.00;11.38;;;18.10;64.20;;;;;;10606625;27;20371;-43
2022/01/29 08:44:43;;;;;;;23.02;10.57;;;18.00;63.80;;;;;;10580902;28;20055;-46
2022/01/29 08:49:43;;;;;;;21.35;9.80;;;17.70;64.50;;;;;;10593309;28;20024;-45
2022/01/29 08:54:44;;;;;;;21.05;9.75;;;17.60;64.80;;;;;;10588304;28;20024;-43
2022/01/29 08:59:45;;;;;;;13.73;8.68;;;17.60;64.80;;;;;;10579257;28;20106;-44
2022/01/29 09:04:46;;;;;;;18.60;9.32;;;17.50;64.80;;;;;;10581994;28;20034;-43
2022/01/29 09:09:46;;;;;;;24.23;10.25;;;17.40;64.80;;;;;;10585958;28;20033;-45
2022/01/29 09:14:48;;;;;;;18.38;9.23;;;17.40;64.70;;;;;;10589127;27;20100;-42
2022/01/29 09:19:48;;;;;;;17.20;8.65;;;17.50;66.90;;;;;;10598400;27;20400;-41
2022/01/29 09:24:49;;;;;;;16.85;9.30;;;17.50;66.50;;;;;;10598330;27;20040;-45
2022/01/29 09:29:50;;;;;;;14.13;8.40;;;17.60;65.70;;;;;;10600653;27;20108;-42
2022/01/29 09:34:51;;;;;;;16.63;8.75;;;17.70;66.70;;;;;;10593222;27;20023;-43
2022/01/29 09:39:53;;;;;;;14.98;7.93;;;17.80;66.70;;;;;;10600616;27;20023;-44
2022/01/29 09:44:55;;;;;;;16.77;7.50;;;17.80;66.70;;;;;;10596958;27;20027;-44
2022/01/29 09:49:56;;;;;;;15.63;7.35;;;17.80;66.20;;;;;;10588826;27;20053;-42
2022/01/29 09:54:58;;;;;;;17.17;7.53;;;17.70;66.40;;;;;;10590428;27;20019;-42
2022/01/29 09:59:59;;;;;;;26.92;8.35;;;17.70;66.70;;;;;;10590747;27;20131;-44
2022/01/29 10:05:00;;;;;;;18.58;6.78;;;17.70;66.70;;;;;;10590197;27;20090;-42
2022/01/29 10:10:03;;;;;;;20.65;7.13;;;17.60;66.50;;;;;;10592072;27;20024;-42
2022/01/29 10:15:08;;;;;;;20.90;7.97;;;17.60;66.40;;;;;;10592344;27;20476;-42
2022/01/29 10:20:11;;;;;;;14.77;7.18;;;17.60;66.30;;;;;;10589542;27;20047;-42
2022/01/29 10:25:18;;;;;;;12.65;7.15;;;17.60;66.30;;;;;;10596892;27;20035;-43
2022/01/29 10:30:19;;;;;;;10.23;6.47;;;17.50;66.20;;;;;;10583532;28;20434;-46
2022/01/29 10:35:20;;;;;;;12.90;6.60;;;17.40;66.10;;;;;;10584997;27;20034;-43
2022/01/29 10:40:26;;;;;;;20.77;7.07;;;17.50;66.10;;;;;;10605565;27;20077;-44
2022/01/29 10:45:35;;;;;;;18.20;6.55;;;17.60;65.90;;;;;;10588721;27;20027;-43
2022/01/29 10:50:36;;;;;;;11.13;6.97;;;17.60;65.80;;;;;;10595173;27;20102;-42
2022/01/29 10:55:57;;;;;;;11.52;6.32;;;17.60;65.90;;;;;;10599020;27;20034;-43
2022/01/29 11:01:21;;;;;;;14.00;5.78;;;17.60;65.70;;;;;;10579591;27;20111;-41
2022/01/29 11:06:31;;;;;;;9.95;5.03;;;17.70;65.50;;;;;;10598501;27;20024;-43
2022/01/29 11:11:33;;;;;;;8.70;5.55;;;17.60;65.50;;;;;;10582625;27;20380;-42
2022/01/29 11:16:35;;;;;;;6.43;4.50;;;17.70;65.50;;;;;;10569942;27;20027;-44
2022/01/29 11:21:37;;;;;;;7.10;4.68;;;17.70;65.50;;;;;;10583209;27;20036;-42
2022/01/29 11:26:40;;;;;;;13.68;5.30;;;17.70;65.60;;;;;;10599060;27;20376;-42
2022/01/29 11:31:40;;;;;;;14.27;5.07;;;17.60;65.80;;;;;;10583998;27;20077;-42
2022/01/29 11:36:47;;;;;;;11.10;5.43;;;17.60;65.80;;;;;;10589994;27;20555;-42
2022/01/29 11:42:12;;;;;;;9.05;4.82;;;17.70;65.60;;;;;;10590160;27;20035;-42
2022/01/29 11:47:22;;;;;;;8.57;4.35;;;17.60;65.70;;;;;;10605532;27;20042;-42
2022/01/29 11:52:25;;;;;;;9.82;4.65;;;17.50;65.80;;;;;;10596267;27;20031;-42
2022/01/29 11:57:25;;;;;;;12.77;4.40;;;17.50;66.00;;;;;;10598467;27;20114;-44
2022/01/29 12:02:27;;;;;;;12.63;4.78;;;17.50;66.30;;;;;;10584023;27;20035;-44
2022/01/29 12:07:35;;;;;;;7.57;3.95;;;17.60;66.20;;;;;;10585368;27;20168;-44
2022/01/29 12:12:38;;;;;;;25.38;5.55;;;17.60;65.90;;;;;;10581167;28;20163;-42
2022/01/29 12:17:49;;;;;;;18.55;4.82;;;17.60;66.40;;;;;;10587624;27;20024;-44
2022/01/29 12:23:04;;;;;;;15.30;4.72;;;17.70;67.00;;;;;;10594941;27;20047;-46
2022/01/29 12:28:07;;;;;;;40.45;5.28;;;17.70;66.50;;;;;;10593557;27;20048;-46
2022/01/29 12:33:12;;;;;;;21.80;4.95;;;17.70;66.40;;;;;;10587996;27;20046;-43
2022/01/29 12:38:22;;;;;;;15.30;4.07;;;17.70;67.00;;;;;;10607425;27;20027;-46
2022/01/29 12:43:54;;;;;;;14.45;4.18;;;17.80;67.00;;;;;;10605267;27;20073;-45
2022/01/29 12:49:12;;;;;;;15.07;5.10;;;17.80;66.20;;;;;;10579519;28;20024;-45
2022/01/29 12:54:13;;;;;;;10.45;3.53;;;17.70;65.80;;;;;;10580046;28;20032;-44
2022/01/29 12:59:15;;;;;;;15.93;3.38;;;17.70;66.00;;;;;;10579465;28;20643;-46
2022/01/29 13:04:19;;;;;;;13.75;3.40;;;17.90;64.80;;;;;;10608338;28;20020;-43
2022/01/29 13:09:22;;;;;;;9.00;3.33;;;17.80;65.30;;;;;;10594378;28;20034;-43
2022/01/29 13:14:23;;;;;;;11.15;3.08;;;17.60;65.60;;;;;;10591972;28;20536;-42
2022/01/29 13:19:27;;;;;;;10.30;3.15;;;17.60;65.50;;;;;;10575137;28;20051;-44
2022/01/29 13:24:29;;;;;;;9.68;3.05;;;17.50;65.50;;;;;;10560785;28;20686;-43
2022/01/29 13:29:33;;;;;;;6.55;2.72;;;17.50;65.50;;;;;;10585362;28;20471;-43
2022/01/29 13:34:44;;;;;;;7.18;2.20;;;17.50;65.50;;;;;;10577935;28;20123;-44
2022/01/29 13:39:48;;;;;;;8.93;2.42;;;17.50;65.40;;;;;;10559896;28;20031;-42
2022/01/29 13:45:19;;;;;;;6.78;2.08;;;17.60;65.20;;;;;;10586984;28;20027;-43
2022/01/29 13:50:44;;;;;;;8.23;2.25;;;17.60;65.00;;;;;;10583165;28;20039;-44
2022/01/29 13:56:08;;;;;;;6.93;1.90;;;17.70;64.60;;;;;;10590482;27;20424;-42
2022/01/29 14:01:09;;;;;;;4.97;1.77;;;17.70;64.30;;;;;;10614189;27;20042;-47
2022/01/29 14:06:34;;;;;;;7.03;1.98;;;17.70;64.20;;;;;;10627338;27;20351;-43
2022/01/29 14:12:09;;;;;;;8.27;2.90;;;17.70;64.00;;;;;;10609571;27;20083;-43
2022/01/29 14:17:16;;;;;;;7.80;2.00;;;17.70;64.10;;;;;;10585991;27;20441;-42
2022/01/29 14:22:18;;;;;;;4.55;1.73;;;17.70;64.00;;;;;;10585894;27;20048;-44
2022/01/29 14:27:20;;;;;;;7.20;2.00;;;17.80;63.80;;;;;;10624118;27;20031;-44
2022/01/29 14:32:23;;;;;;;5.32;1.55;;;17.70;63.80;;;;;;10605669;27;20517;-43
2022/01/29 14:37:24;;;;;;;6.15;2.25;;;17.70;64.10;;;;;;10595299;27;20042;-45
2022/01/29 14:42:28;;;;;;;9.27;2.95;;;17.60;64.40;;;;;;10606575;27;20039;-42
2022/01/29 14:47:29;;;;;;;11.70;2.53;;;17.50;65.70;;;;;;10615409;27;20080;-41
2022/01/29 14:52:30;;;;;;;10.13;2.42;;;17.50;66.20;;;;;;10598012;27;20416;-43
2022/01/29 14:57:31;;;;;;;9.57;1.80;;;17.50;65.80;;;;;;10584012;27;20039;-44
2022/01/29 15:02:32;;;;;;;9.05;2.25;;;17.50;65.50;;;;;;10611687;27;20076;-43
2022/01/29 15:07:32;;;;;;;10.60;2.45;;;17.50;66.60;;;;;;10624244;27;20437;-43
2022/01/29 15:12:33;;;;;;;19.98;2.75;;;17.50;67.10;;;;;;10568788;27;20032;-43
2022/01/29 15:17:34;;;;;;;12.88;3.45;;;17.50;67.40;;;;;;10617250;27;20037;-41
2022/01/29 15:22:35;;;;;;;13.07;2.10;;;17.50;66.50;;;;;;10623902;27;20047;-43
2022/01/29 15:27:36;;;;;;;22.50;2.88;;;17.60;65.60;;;;;;10572195;27;20055;-44
2022/01/29 15:32:37;;;;;;;24.35;3.63;;;17.70;66.20;;;;;;10573008;27;20065;-45
2022/01/29 15:37:38;;;;;;;15.05;3.50;;;17.80;65.70;;;;;;10560922;27;20039;-43
2022/01/29 15:42:40;;;;;;;20.65;4.28;;;17.70;65.60;;;;;;10609856;27;20031;-42
2022/01/29 15:47:41;;;;;;;17.13;2.45;;;17.80;65.60;;;;;;10568287;28;20464;-47
2022/01/29 15:52:41;;;;;;;12.15;2.70;;;17.80;65.20;;;;;;10606553;27;20031;-42
2022/01/29 15:57:42;;;;;;;16.73;2.67;;;17.60;65.70;;;;;;10623480;27;20034;-42
2022/01/29 16:02:43;;;;;;;12.80;3.10;;;17.70;65.30;;;;;;10611443;27;20035;-45
2022/01/29 16:07:45;;;;;;;9.88;2.45;;;17.80;64.80;;;;;;10576458;27;20035;-43
2022/01/29 16:12:46;;;;;;;10.45;2.05;;;17.80;64.60;;;;;;10599798;27;20383;-43
2022/01/29 16:17:47;;;;;;;19.17;2.35;;;17.70;64.60;;;;;;10618813;27;20039;-41
2022/01/29 16:22:48;;;;;;;15.07;3.38;;;17.70;64.30;;;;;;10579930;28;20044;-43
2022/01/29 16:27:49;;;;;;;15.52;3.13;;;17.70;64.20;;;;;;10587022;27;20118;-42
2022/01/29 16:32:49;;;;;;;10.45;3.38;;;17.80;64.20;;;;;;10608141;27;20437;-42
2022/01/29 16:37:50;;;;;;;17.42;2.90;;;17.70;64.20;;;;;;10580120;28;20181;-42
2022/01/29 16:42:51;;;;;;;19.88;2.90;;;17.80;63.80;;;;;;10583168;27;20507;-41
2022/01/29 16:47:52;;;;;;;21.70;3.65;;;17.70;63.70;;;;;;10579463;28;20449;-42
2022/01/29 16:52:53;;;;;;;21.25;3.38;;;17.80;63.50;;;;;;10570765;28;20241;-43
2022/01/29 16:57:54;;;;;;;20.63;3.72;;;18.00;63.20;;;;;;10593680;28;20220;-42
2022/01/29 17:02:54;;;;;;;41.63;7.25;;;18.10;63.00;;;;;;10617080;28;20036;-43
2022/01/29 17:07:56;;;;;;;54.38;7.38;;;18.40;66.40;;;;;;10581895;28;20028;-43
2022/01/29 17:12:57;;;;;;;38.40;6.70;;;18.40;66.60;;;;;;10607011;28;20035;-42
2022/01/29 17:17:58;;;;;;;43.53;6.05;;;18.30;69.20;;;;;;10621885;28;20433;-42
2022/01/29 17:22:58;;;;;;;29.88;6.28;;;18.40;69.00;;;;;;10595840;28;20127;-44
2022/01/29 17:27:59;;;;;;;38.33;6.43;;;18.40;68.00;;;;;;10587389;28;20069;-47
2022/01/29 17:33:00;;;;;;;31.13;5.68;;;18.40;67.80;;;;;;10611643;27;20031;-41
2022/01/29 17:38:01;;;;;;;33.85;5.72;;;18.20;68.00;;;;;;10601171;27;20157;-42
2022/01/29 17:43:03;;;;;;;25.83;5.47;;;18.20;68.80;;;;;;10586941;27;20039;-43
2022/01/29 17:48:04;;;;;;;37.05;6.22;;;18.20;68.70;;;;;;10596376;27;20352;-42
2022/01/29 17:53:06;;;;;;;26.42;5.63;;;18.10;68.70;;;;;;10610591;27;20030;-42
2022/01/29 17:58:10;;;;;;;24.60;4.43;;;18.00;68.20;;;;;;10601419;27;20019;-41
2022/01/29 18:03:11;;;;;;;23.48;3.85;;;18.00;68.30;;;;;;10592763;27;20028;-41
2022/01/29 18:08:11;;;;;;;19.20;4.55;;;17.90;68.10;;;;;;10586017;28;20563;-42
2022/01/29 18:13:13;;;;;;;12.63;4.10;;;17.80;67.90;;;;;;10591739;27;20035;-40
2022/01/29 18:18:16;;;;;;;25.52;4.35;;;17.70;68.00;;;;;;10614296;27;20106;-41
2022/01/29 18:23:16;;;;;;;19.10;4.70;;;17.70;69.80;;;;;;10547965;28;20041;-43
2022/01/29 18:28:23;;;;;;;12.85;3.53;;;17.70;67.80;;;;;;10556996;28;20492;-42
2022/01/29 18:33:24;;;;;;;22.63;4.47;;;17.60;67.70;;;;;;10556555;28;20059;-42
2022/01/29 18:38:25;;;;;;;19.65;5.47;;;17.50;68.10;;;;;;10555507;28;20058;-41
2022/01/29 18:43:31;;;;;;;22.20;4.18;;;17.50;68.30;;;;;;10566661;28;20032;-40
2022/01/29 18:48:33;;;;;;;20.85;3.90;;;17.40;69.40;;;;;;10540802;28;20512;-44
2022/01/29 18:53:34;;;;;;;10.57;3.20;;;17.40;69.60;;;;;;10555700;28;20589;-43
2022/01/29 18:58:37;;;;;;;12.15;3.10;;;17.40;69.70;;;;;;10531130;28;20061;-43
2022/01/29 19:03:38;;;;;;;10.90;3.08;;;17.30;69.70;;;;;;10564589;28;20044;-40
2022/01/29 19:08:39;;;;;;;13.98;3.30;;;17.30;69.70;;;;;;10541051;28;20043;-42
2022/01/29 19:13:42;;;;;;;12.20;2.83;;;17.30;69.70;;;;;;10562895;28;20380;-43
2022/01/29 19:18:44;;;;;;;12.05;3.70;;;17.30;69.60;;;;;;10554479;28;20472;-42
2022/01/29 19:23:45;;;;;;;14.70;3.28;;;17.30;69.60;;;;;;10565361;28;20048;-41
2022/01/29 19:28:45;;;;;;;15.60;3.85;;;17.30;69.60;;;;;;10545269;28;20362;-41
2022/01/29 19:33:46;;;;;;;7.47;2.50;;;17.30;69.70;;;;;;10557650;28;20380;-43
2022/01/29 19:38:47;;;;;;;8.77;2.58;;;17.30;69.80;;;;;;10549449;28;20527;-41
2022/01/29 19:43:48;;;;;;;14.70;2.38;;;17.30;69.70;;;;;;10556982;28;20040;-45
2022/01/29 19:48:50;;;;;;;16.05;3.20;;;17.40;68.50;;;;;;10552485;28;20020;-43
2022/01/29 19:53:52;;;;;;;8.63;2.88;;;17.50;68.40;;;;;;10557724;28;20425;-41
2022/01/29 19:58:54;;;;;;;8.85;2.42;;;17.60;68.30;;;;;;10556493;28;20024;-42
2022/01/29 20:03:57;;;;;;;11.50;2.80;;;17.50;68.10;;;;;;10542388;28;20032;-41
2022/01/29 20:08:58;;;;;;;7.47;2.38;;;17.40;67.70;;;;;;10560244;28;20392;-41
2022/01/29 20:13:59;;;;;;;6.20;2.15;;;17.40;67.60;;;;;;10548599;28;20042;-41
2022/01/29 20:19:01;;;;;;;7.25;1.75;;;17.40;67.50;;;;;;10544037;28;20031;-44
2022/01/29 20:24:03;;;;;;;8.05;2.45;;;17.40;67.40;;;;;;10571183;27;20036;-44
2022/01/29 20:29:09;;;;;;;7.05;2.10;;;17.50;67.30;;;;;;10596288;27;20406;-43
2022/01/29 20:34:10;;;;;;;6.70;2.17;;;17.50;66.70;;;;;;10575392;27;20023;-44
2022/01/29 20:39:12;;;;;;;7.13;1.70;;;17.60;66.50;;;;;;10570166;28;20024;-42
2022/01/29 20:44:13;;;;;;;5.20;1.83;;;17.60;66.30;;;;;;10579999;28;20057;-41
2022/01/29 20:49:14;;;;;;;8.20;1.90;;;17.60;66.10;;;;;;10575811;28;20032;-44
2022/01/29 20:54:16;;;;;;;4.50;1.50;;;17.60;65.90;;;;;;10593636;28;20035;-44
2022/01/29 20:59:16;;;;;;;6.35;1.33;;;17.60;65.80;;;;;;10591339;28;20122;-43
2022/01/29 21:04:17;;;;;;;8.00;1.60;;;17.60;65.60;;;;;;10584008;28;20464;-43
2022/01/29 21:09:18;;;;;;;5.88;1.92;;;17.70;65.50;;;;;;10601163;27;20027;-44
2022/01/29 21:14:19;;;;;;;3.83;1.98;;;17.70;65.40;;;;;;10588023;28;20062;-41
2022/01/29 21:19:19;;;;;;;7.07;1.15;;;17.70;65.30;;;;;;10590728;27;20662;-41
2022/01/29 21:24:20;;;;;;;8.20;1.52;;;17.60;65.20;;;;;;10599623;27;20036;-44
2022/01/29 21:29:21;;;;;;;6.93;1.58;;;17.70;65.10;;;;;;10591643;27;20043;-42
2022/01/29 21:34:22;;;;;;;6.72;1.55;;;17.70;65.00;;;;;;10607118;27;20023;-43
2022/01/29 21:39:23;;;;;;;4.57;1.50;;;17.60;64.80;;;;;;10595726;27;20039;-46
2022/01/29 21:44:23;;;;;;;3.45;1.25;;;17.70;64.80;;;;;;10586994;28;20031;-41
2022/01/29 21:49:25;;;;;;;3.22;1.17;;;17.70;64.70;;;;;;10587037;27;20030;-42
2022/01/29 21:54:26;;;;;;;5.40;1.77;;;17.70;64.70;;;;;;10586618;28;20023;-46
2022/01/29 21:59:28;;;;;;;5.68;1.70;;;17.60;64.50;;;;;;10603814;27;20226;-41
2022/01/29 22:04:30;;;;;;;3.88;1.35;;;17.70;64.40;;;;;;10587244;27;20019;-41
2022/01/29 22:09:31;;;;;;;3.22;1.10;;;17.70;64.40;;;;;;10603318;27;20025;-44
2022/01/29 22:14:32;;;;;;;5.60;1.73;;;17.80;64.80;;;;;;10593423;27;20038;-45
2022/01/29 22:19:33;;;;;;;2.35;0.90;;;17.80;64.00;;;;;;10584490;28;20176;-42
2022/01/29 22:24:33;;;;;;;4.07;1.75;;;17.80;63.80;;;;;;10585395;28;20027;-42
2022/01/29 22:29:34;;;;;;;2.53;0.85;;;17.80;63.70;;;;;;10598886;27;20463;-43
2022/01/29 22:34:35;;;;;;;3.65;1.15;;;17.70;63.70;;;;;;10576831;27;20111;-44
2022/01/29 22:39:37;;;;;;;3.47;1.65;;;17.80;63.80;;;;;;10586523;27;20551;-45
2022/01/29 22:44:38;;;;;;;3.05;1.13;;;17.70;63.70;;;;;;10584797;28;20030;-43
2022/01/29 22:49:40;;;;;;;2.53;0.90;;;17.80;63.70;;;;;;10584717;27;20084;-43
2022/01/29 22:54:41;;;;;;;1.75;0.77;;;17.80;63.60;;;;;;10597959;27;20035;-43
2022/01/29 22:59:42;;;;;;;3.35;1.20;;;17.70;63.60;;;;;;10591510;27;20737;-43
2022/01/29 23:04:42;;;;;;;2.45;0.70;;;17.80;63.60;;;;;;10624548;27;20039;-42
2022/01/29 23:10:09;;;;;;;1.80;0.63;;;17.70;63.50;;;;;;10579418;27;20111;-41
2022/01/29 23:15:11;;;;;;;3.60;1.88;;;17.80;63.50;;;;;;10583547;28;20065;-44
2022/01/29 23:20:29;;;;;;;2.65;1.05;;;17.70;63.40;;;;;;10606179;27;20449;-44
2022/01/29 23:25:32;;;;;;;3.42;0.80;;;17.80;63.40;;;;;;10611908;27;20027;-42
2022/01/29 23:30:33;;;;;;;3.25;0.80;;;17.70;63.30;;;;;;10595875;27;20029;-43
2022/01/29 23:35:34;;;;;;;3.25;0.90;;;17.80;63.30;;;;;;10592287;27;20114;-43
2022/01/29 23:40:36;;;;;;;2.50;1.00;;;17.80;63.30;;;;;;10585442;27;20035;-43
2022/01/29 23:50:37;;;;;;;3.30;0.80;;;17.80;63.00;;;;;;10600670;27;20023;-42
2022/01/29 23:55:38;;;;;;;2.90;0.82;;;17.90;62.80;;;;;;10577422;27;20042;-42
